sensor_id;sensor_type;location;lat;lon;timestamp;temperature;humidity
52073;DHT22;38074;51.232;6.826;2023-05-07T00:00:47;24.40;51.50
52073;DHT22;38074;51.232;6.826;2023-05-07T00:08:02;24.40;51.40
52073;DHT22;38074;51.232;6.826;2023-05-07T00:15:18;24.40;51.40
52073;DHT22;38074;51.232;6.826;2023-05-07T00:22:33;24.40;51.40
52073;DHT22;38074;51.232;6.826;2023-05-07T00:29:49;24.40;51.40
52073;DHT22;38074;51.232;6.826;2023-05-07T00:37:04;24.40;51.40
52073;DHT22;38074;51.232;6.826;2023-05-07T00:44:20;24.40;51.30
52073;DHT22;38074;51.232;6.826;2023-05-07T00:51:36;24.40;51.30
52073;DHT22;38074;51.232;6.826;2023-05-07T00:58:51;24.40;51.50
52073;DHT22;38074;51.232;6.826;2023-05-07T01:06:07;24.40;51.30
52073;DHT22;38074;51.232;6.826;2023-05-07T01:13:24;24.40;51.30
52073;DHT22;38074;51.232;6.826;2023-05-07T01:20:41;24.30;51.20
52073;DHT22;38074;51.232;6.826;2023-05-07T01:27:56;24.40;51.20
52073;DHT22;38074;51.232;6.826;2023-05-07T01:35:15;24.40;51.20
52073;DHT22;38074;51.232;6.826;2023-05-07T01:42:32;24.40;51.20
52073;DHT22;38074;51.232;6.826;2023-05-07T01:49:48;24.30;51.10
52073;DHT22;38074;51.232;6.826;2023-05-07T01:57:03;24.40;51.20
52073;DHT22;38074;51.232;6.826;2023-05-07T02:04:19;24.30;51.10
52073;DHT22;38074;51.232;6.826;2023-05-07T02:11:34;24.40;51.10
52073;DHT22;38074;51.232;6.826;2023-05-07T02:18:51;24.30;51.00
52073;DHT22;38074;51.232;6.826;2023-05-07T02:26:07;24.30;51.00
52073;DHT22;38074;51.232;6.826;2023-05-07T02:33:22;24.30;51.00
52073;DHT22;38074;51.232;6.826;2023-05-07T02:40:38;24.30;51.00
52073;DHT22;38074;51.232;6.826;2023-05-07T02:47:54;24.30;50.90
52073;DHT22;38074;51.232;6.826;2023-05-07T02:55:10;24.30;50.90
52073;DHT22;38074;51.232;6.826;2023-05-07T03:02:26;24.40;50.90
52073;DHT22;38074;51.232;6.826;2023-05-07T03:09:41;24.30;50.80
52073;DHT22;38074;51.232;6.826;2023-05-07T03:16:57;24.30;50.80
52073;DHT22;38074;51.232;6.826;2023-05-07T03:24:12;24.30;50.70
52073;DHT22;38074;51.232;6.826;2023-05-07T03:31:28;24.30;50.60
52073;DHT22;38074;51.232;6.826;2023-05-07T03:38:43;24.30;50.60
52073;DHT22;38074;51.232;6.826;2023-05-07T03:45:59;24.30;50.60
52073;DHT22;38074;51.232;6.826;2023-05-07T03:53:14;24.30;50.50
52073;DHT22;38074;51.232;6.826;2023-05-07T04:00:30;24.30;50.50
52073;DHT22;38074;51.232;6.826;2023-05-07T04:07:48;24.30;50.40
52073;DHT22;38074;51.232;6.826;2023-05-07T04:15:04;24.30;50.40
52073;DHT22;38074;51.232;6.826;2023-05-07T04:22:20;24.30;50.40
52073;DHT22;38074;51.232;6.826;2023-05-07T04:29:35;24.30;50.30
52073;DHT22;38074;51.232;6.826;2023-05-07T04:36:51;24.30;50.30
52073;DHT22;38074;51.232;6.826;2023-05-07T04:44:06;24.30;50.30
52073;DHT22;38074;51.232;6.826;2023-05-07T04:51:22;24.30;50.30
52073;DHT22;38074;51.232;6.826;2023-05-07T04:58:37;24.30;50.10
52073;DHT22;38074;51.232;6.826;2023-05-07T05:05:53;24.30;50.10
52073;DHT22;38074;51.232;6.826;2023-05-07T05:13:09;24.30;50.00
52073;DHT22;38074;51.232;6.826;2023-05-07T05:20:24;24.30;50.00
52073;DHT22;38074;51.232;6.826;2023-05-07T05:27:40;24.30;50.00
52073;DHT22;38074;51.232;6.826;2023-05-07T05:34:55;24.30;50.00
52073;DHT22;38074;51.232;6.826;2023-05-07T05:42:11;24.40;50.60
52073;DHT22;38074;51.232;6.826;2023-05-07T05:49:26;24.40;50.00
52073;DHT22;38074;51.232;6.826;2023-05-07T05:56:42;24.40;50.00
52073;DHT22;38074;51.232;6.826;2023-05-07T06:03:57;24.40;50.00
52073;DHT22;38074;51.232;6.826;2023-05-07T06:11:13;24.40;50.00
52073;DHT22;38074;51.232;6.826;2023-05-07T06:18:28;24.40;50.10
52073;DHT22;38074;51.232;6.826;2023-05-07T06:25:51;24.40;50.80
52073;DHT22;38074;51.232;6.826;2023-05-07T06:33:06;24.40;50.40
52073;DHT22;38074;51.232;6.826;2023-05-07T06:40:22;24.40;50.40
52073;DHT22;38074;51.232;6.826;2023-05-07T06:47:37;24.40;50.50
52073;DHT22;38074;51.232;6.826;2023-05-07T06:54:53;24.50;50.50
52073;DHT22;38074;51.232;6.826;2023-05-07T07:02:08;24.50;50.50
52073;DHT22;38074;51.232;6.826;2023-05-07T07:09:24;24.50;51.10
52073;DHT22;38074;51.232;6.826;2023-05-07T07:16:40;24.50;50.50
52073;DHT22;38074;51.232;6.826;2023-05-07T07:23:56;24.60;50.70
52073;DHT22;38074;51.232;6.826;2023-05-07T07:31:12;24.60;50.60
52073;DHT22;38074;51.232;6.826;2023-05-07T07:38:27;24.70;50.60
52073;DHT22;38074;51.232;6.826;2023-05-07T07:45:43;24.70;50.60
52073;DHT22;38074;51.232;6.826;2023-05-07T07:52:59;24.80;51.00
52073;DHT22;38074;51.232;6.826;2023-05-07T08:00:16;24.80;50.60
52073;DHT22;38074;51.232;6.826;2023-05-07T08:07:31;24.70;50.20
52073;DHT22;38074;51.232;6.826;2023-05-07T08:14:47;24.70;49.90
52073;DHT22;38074;51.232;6.826;2023-05-07T08:22:03;24.70;49.50
52073;DHT22;38074;51.232;6.826;2023-05-07T08:29:19;24.80;49.70
52073;DHT22;38074;51.232;6.826;2023-05-07T08:36:35;24.90;49.40
52073;DHT22;38074;51.232;6.826;2023-05-07T08:43:51;25.00;49.10
52073;DHT22;38074;51.232;6.826;2023-05-07T08:51:13;25.10;49.00
52073;DHT22;38074;51.232;6.826;2023-05-07T08:58:28;25.10;49.00
52073;DHT22;38074;51.232;6.826;2023-05-07T09:05:44;25.10;49.00
52073;DHT22;38074;51.232;6.826;2023-05-07T09:13:00;25.10;48.90
52073;DHT22;38074;51.232;6.826;2023-05-07T09:20:16;25.20;48.90
52073;DHT22;38074;51.232;6.826;2023-05-07T09:27:32;25.10;48.70
52073;DHT22;38074;51.232;6.826;2023-05-07T09:34:47;25.10;48.70
52073;DHT22;38074;51.232;6.826;2023-05-07T09:42:03;25.00;48.70
52073;DHT22;38074;51.232;6.826;2023-05-07T09:49:22;25.00;48.80
52073;DHT22;38074;51.232;6.826;2023-05-07T09:56:39;25.00;48.90
52073;DHT22;38074;51.232;6.826;2023-05-07T10:03:57;25.00;48.80
52073;DHT22;38074;51.232;6.826;2023-05-07T10:11:14;25.00;48.70
52073;DHT22;38074;51.232;6.826;2023-05-07T10:18:31;25.00;48.50
52073;DHT22;38074;51.232;6.826;2023-05-07T10:25:48;25.00;48.40
52073;DHT22;38074;51.232;6.826;2023-05-07T10:33:05;25.00;48.50
52073;DHT22;38074;51.232;6.826;2023-05-07T10:40:24;25.00;48.50
52073;DHT22;38074;51.232;6.826;2023-05-07T10:48:11;25.00;48.60
52073;DHT22;38074;51.232;6.826;2023-05-07T10:55:27;25.00;48.60
52073;DHT22;38074;51.232;6.826;2023-05-07T11:10:16;25.00;48.00
52073;DHT22;38074;51.232;6.826;2023-05-07T11:17:32;24.90;47.90
52073;DHT22;38074;51.232;6.826;2023-05-07T11:24:49;24.90;47.70
52073;DHT22;38074;51.232;6.826;2023-05-07T11:32:06;25.00;47.90
52073;DHT22;38074;51.232;6.826;2023-05-07T11:39:28;25.00;47.80
52073;DHT22;38074;51.232;6.826;2023-05-07T11:46:44;25.00;47.90
52073;DHT22;38074;51.232;6.826;2023-05-07T11:54:00;24.90;47.90
52073;DHT22;38074;51.232;6.826;2023-05-07T12:01:18;25.00;48.00
52073;DHT22;38074;51.232;6.826;2023-05-07T12:08:37;25.00;48.00
52073;DHT22;38074;51.232;6.826;2023-05-07T12:15:56;25.00;48.00
52073;DHT22;38074;51.232;6.826;2023-05-07T12:23:13;25.00;48.00
52073;DHT22;38074;51.232;6.826;2023-05-07T12:30:28;24.90;48.00
52073;DHT22;38074;51.232;6.826;2023-05-07T12:37:45;25.00;48.10
52073;DHT22;38074;51.232;6.826;2023-05-07T12:45:15;24.90;48.10
52073;DHT22;38074;51.232;6.826;2023-05-07T12:52:30;24.90;48.20
52073;DHT22;38074;51.232;6.826;2023-05-07T12:59:46;24.90;48.20
52073;DHT22;38074;51.232;6.826;2023-05-07T13:07:02;24.90;48.20
52073;DHT22;38074;51.232;6.826;2023-05-07T13:14:18;24.90;48.30
52073;DHT22;38074;51.232;6.826;2023-05-07T13:21:36;24.90;48.40
52073;DHT22;38074;51.232;6.826;2023-05-07T13:28:54;24.90;48.50
52073;DHT22;38074;51.232;6.826;2023-05-07T13:36:10;24.90;48.60
52073;DHT22;38074;51.232;6.826;2023-05-07T13:43:25;24.90;49.30
52073;DHT22;38074;51.232;6.826;2023-05-07T13:50:41;24.90;48.70
52073;DHT22;38074;51.232;6.826;2023-05-07T13:57:58;24.90;48.80
52073;DHT22;38074;51.232;6.826;2023-05-07T14:05:14;24.90;48.90
52073;DHT22;38074;51.232;6.826;2023-05-07T14:12:30;24.80;48.90
52073;DHT22;38074;51.232;6.826;2023-05-07T14:19:46;24.80;49.10
52073;DHT22;38074;51.232;6.826;2023-05-07T14:27:02;24.80;49.20
52073;DHT22;38074;51.232;6.826;2023-05-07T14:34:17;24.80;49.40
52073;DHT22;38074;51.232;6.826;2023-05-07T14:41:33;24.80;49.50
52073;DHT22;38074;51.232;6.826;2023-05-07T14:48:48;24.80;49.70
52073;DHT22;38074;51.232;6.826;2023-05-07T14:56:04;24.80;49.90
52073;DHT22;38074;51.232;6.826;2023-05-07T15:03:20;24.80;49.90
52073;DHT22;38074;51.232;6.826;2023-05-07T15:10:37;24.80;50.00
52073;DHT22;38074;51.232;6.826;2023-05-07T15:17:56;24.80;50.20
52073;DHT22;38074;51.232;6.826;2023-05-07T15:25:11;24.80;50.30
52073;DHT22;38074;51.232;6.826;2023-05-07T15:32:27;24.80;50.40
52073;DHT22;38074;51.232;6.826;2023-05-07T15:39:42;24.80;51.30
52073;DHT22;38074;51.232;6.826;2023-05-07T15:46:59;24.90;51.40
52073;DHT22;38074;51.232;6.826;2023-05-07T15:54:15;25.00;51.70
52073;DHT22;38074;51.232;6.826;2023-05-07T16:01:32;24.90;51.60
52073;DHT22;38074;51.232;6.826;2023-05-07T16:08:47;25.00;51.70
52073;DHT22;38074;51.232;6.826;2023-05-07T16:16:04;25.00;51.70
52073;DHT22;38074;51.232;6.826;2023-05-07T16:23:20;24.90;51.80
52073;DHT22;38074;51.232;6.826;2023-05-07T16:30:36;24.90;51.70
52073;DHT22;38074;51.232;6.826;2023-05-07T16:37:52;25.00;51.90
52073;DHT22;38074;51.232;6.826;2023-05-07T16:45:08;24.90;52.00
52073;DHT22;38074;51.232;6.826;2023-05-07T16:52:24;24.90;52.10
52073;DHT22;38074;51.232;6.826;2023-05-07T16:59:39;24.90;52.30
52073;DHT22;38074;51.232;6.826;2023-05-07T17:06:55;24.90;52.50
52073;DHT22;38074;51.232;6.826;2023-05-07T17:14:11;24.90;52.40
52073;DHT22;38074;51.232;6.826;2023-05-07T17:21:26;24.90;53.10
52073;DHT22;38074;51.232;6.826;2023-05-07T17:28:42;24.80;53.90
52073;DHT22;38074;51.232;6.826;2023-05-07T17:35:57;24.70;54.60
52073;DHT22;38074;51.232;6.826;2023-05-07T17:43:13;24.70;54.90
52073;DHT22;38074;51.232;6.826;2023-05-07T17:50:29;24.80;55.00
52073;DHT22;38074;51.232;6.826;2023-05-07T17:57:44;24.70;55.20
52073;DHT22;38074;51.232;6.826;2023-05-07T18:05:00;24.80;55.30
52073;DHT22;38074;51.232;6.826;2023-05-07T18:12:16;24.70;55.50
52073;DHT22;38074;51.232;6.826;2023-05-07T18:19:31;24.70;55.70
52073;DHT22;38074;51.232;6.826;2023-05-07T18:26:47;24.70;56.10
52073;DHT22;38074;51.232;6.826;2023-05-07T18:34:03;24.70;56.30
52073;DHT22;38074;51.232;6.826;2023-05-07T18:41:20;24.70;56.20
52073;DHT22;38074;51.232;6.826;2023-05-07T18:48:36;24.70;57.10
52073;DHT22;38074;51.232;6.826;2023-05-07T18:55:51;24.70;56.50
52073;DHT22;38074;51.232;6.826;2023-05-07T19:03:07;24.60;56.60
52073;DHT22;38074;51.232;6.826;2023-05-07T19:10:22;24.60;57.40
52073;DHT22;38074;51.232;6.826;2023-05-07T19:17:38;24.80;57.20
52073;DHT22;38074;51.232;6.826;2023-05-07T19:24:53;24.80;57.30
52073;DHT22;38074;51.232;6.826;2023-05-07T19:32:09;24.80;56.90
52073;DHT22;38074;51.232;6.826;2023-05-07T19:39:25;24.80;56.80
52073;DHT22;38074;51.232;6.826;2023-05-07T19:46:40;24.90;56.80
52073;DHT22;38074;51.232;6.826;2023-05-07T19:53:59;24.90;56.70
52073;DHT22;38074;51.232;6.826;2023-05-07T20:01:15;24.90;56.60
52073;DHT22;38074;51.232;6.826;2023-05-07T20:08:31;24.90;56.70
52073;DHT22;38074;51.232;6.826;2023-05-07T20:15:46;24.90;56.70
52073;DHT22;38074;51.232;6.826;2023-05-07T20:23:02;24.90;56.70
52073;DHT22;38074;51.232;6.826;2023-05-07T20:30:17;24.90;56.70
52073;DHT22;38074;51.232;6.826;2023-05-07T20:37:34;24.80;56.90
52073;DHT22;38074;51.232;6.826;2023-05-07T20:44:50;24.70;57.20
52073;DHT22;38074;51.232;6.826;2023-05-07T20:52:05;24.70;57.20
52073;DHT22;38074;51.232;6.826;2023-05-07T20:59:21;24.70;57.30
52073;DHT22;38074;51.232;6.826;2023-05-07T21:06:37;24.70;57.40
52073;DHT22;38074;51.232;6.826;2023-05-07T21:13:52;24.60;57.40
52073;DHT22;38074;51.232;6.826;2023-05-07T21:21:08;24.70;57.50
52073;DHT22;38074;51.232;6.826;2023-05-07T21:28:24;24.60;57.40
52073;DHT22;38074;51.232;6.826;2023-05-07T21:35:40;24.70;57.40
52073;DHT22;38074;51.232;6.826;2023-05-07T21:42:56;24.60;57.40
52073;DHT22;38074;51.232;6.826;2023-05-07T21:50:12;24.60;57.30
52073;DHT22;38074;51.232;6.826;2023-05-07T21:57:27;24.60;57.30
52073;DHT22;38074;51.232;6.826;2023-05-07T22:04:43;24.60;57.30
52073;DHT22;38074;51.232;6.826;2023-05-07T22:11:58;24.60;57.20
52073;DHT22;38074;51.232;6.826;2023-05-07T22:19:14;24.60;57.20
52073;DHT22;38074;51.232;6.826;2023-05-07T22:26:30;24.60;57.20
52073;DHT22;38074;51.232;6.826;2023-05-07T22:33:45;24.60;57.10
52073;DHT22;38074;51.232;6.826;2023-05-07T22:41:01;24.50;57.00
52073;DHT22;38074;51.232;6.826;2023-05-07T22:48:16;24.50;57.00
52073;DHT22;38074;51.232;6.826;2023-05-07T22:55:32;24.50;56.90
52073;DHT22;38074;51.232;6.826;2023-05-07T23:02:47;24.50;56.90
52073;DHT22;38074;51.232;6.826;2023-05-07T23:10:03;24.50;56.90
52073;DHT22;38074;51.232;6.826;2023-05-07T23:17:19;24.50;56.80
52073;DHT22;38074;51.232;6.826;2023-05-07T23:24:35;24.50;56.70
52073;DHT22;38074;51.232;6.826;2023-05-07T23:31:50;24.50;56.70
52073;DHT22;38074;51.232;6.826;2023-05-07T23:39:06;24.50;56.60
52073;DHT22;38074;51.232;6.826;2023-05-07T23:46:21;24.50;56.60
52073;DHT22;38074;51.232;6.826;2023-05-07T23:53:38;24.50;56.50
